CheckWX is a tool to help pilots better visualize weather data.  It is not intended as a substitute for an official pre-flight weather briefing.

18:03:23 UTC

CYUL METAR
Montreal / Pierre Elliott Trudeau International Airport
Montréal, Canada
Current

1 hour ago

CYUL 241700Z 29009KT 15SM FEW008 SCT013 OVC020 06/05 A2973 RMK SF2SF2SC4 PRESRR SLP068
Observed
Apr-24 @ 17:00 UTC
Wind
  • 290° at 9 KTS
Visibility
15 SM
Flight Rules
MVFR
Cloud Levels
  • Few at 800' AGL
  • Scattered at 1,300' AGL
  • Overcast at 2,000' AGL
Temperature
C / 43°F
Dewpoint
C / 41°F
Humidity
93%
Altimeter
29.73" Hg
Pressure
1006.82 hPa
Previous

2 hours ago

CYUL 241600Z 24013G18KT 6SM -DZ BR FEW007 BKN013 OVC019 06/05 A2969 RMK SF2SF5SC1 SLP056
Observed
Apr-24 @ 16:00 UTC
Wind
  • 240° at 13 KTS
  • Gusting to 18 KTS
Visibility
6 SM
Flight Rules
MVFR
Conditions
Light Drizzle, Mist
Cloud Levels
  • Few at 700' AGL
  • Broken at 1,300' AGL
  • Overcast at 1,900' AGL
Temperature
C / 43°F
Dewpoint
C / 41°F
Humidity
93%
Altimeter
29.69" Hg
Pressure
1005.42 hPa
Previous

3 hours ago

CYUL 241500Z 25011G18KT 3SM -RA BR BKN007 OVC012 06/05 A2968 RMK SF5SF3 SLP052
Observed
Apr-24 @ 15:00 UTC
Wind
  • 250° at 11 KTS
  • Gusting to 18 KTS
Visibility
3 SM
Flight Rules
IFR
Conditions
Light Rain, Mist
Cloud Levels
  • Broken at 700' AGL
  • Overcast at 1,200' AGL
Temperature
C / 43°F
Dewpoint
C / 41°F
Humidity
93%
Altimeter
29.68" Hg
Pressure
1005.12 hPa